Historyczne dane pomiarowe

Dodano dane terminowe – wersja testowa.

Dane z okresu 1951-2019

Wersja bazy: 1.34 [2019-03-16, lista zmian], aktualizacja planowana na 2019-04-15

Dane meteo z obszaru Polski uzyskane na podstawie danych udostępnionych przez Instytut Meteorologii i Gospodarki Wodnej – Państwowy Instytut Badawczy.

 

Wybierz Datę:    

       

TemperaturaWilgotnośćWiatrCiśnienieOpadyŚniegCzas trwania zjawisk
 Stacja t tx tn tng RH VA  wxwx mslp ppp RRR   cm mm wxwxwxwxwxwxwx
1994-08-14 14.3 18.6 11.8--- 4.3 7.0---- 2.4------------
1994-08-13 17.8 23.5 12.9--- 5.3 2.0---- 3.9------------
1994-08-12 16.7 21.1 8.2--- 5.3 0.7---- 0.0------------
1994-08-11 18.3 25.0 8.7--- 1.0 1.0---- 0.0------------
1994-08-10 19.4 25.7 14.4--- 1.7 1.3---- 0.0------------
1994-08-09 19.3 24.6 12.1--- 5.3 0.0---- 1.2------------
1994-08-08 18.9 25.4 12.1--- 5.0 0.0---- 0.0------------
1994-08-07 21.7 26.8 18.4--- 4.3 2.0---- 0.0------------
1994-08-06 24.4 33.0 15.6--- 3.3 2.0---- 0.3------------
1994-08-05 23.2 30.9 15.9--- 1.0 1.0---- 0.0------------
1994-08-04 22.7 30.5 15.2--- 2.3 0.0---- 0.0------------
1994-08-03 22.6 28.6 15.5--- 7.7 0.7---- 0.0------------
1994-08-02 25.4 32.5 15.8--- 0.0 0.0---- 0.0------------
1994-08-01 24.0 31.5 16.7--- 3.7 1.3---- 0.9------------
1994-07-31 25.9 34.7 16.2--- 1.7 0.0---- 0.0------------
1994-07-30 26.5 34.4 15.1--- 0.0 0.7---- 0.0------------
1994-07-29 24.9 33.4 13.6--- 0.0 0.0---- 0.0------------
1994-07-28 23.9 33.1 11.3--- 0.0 0.0---- 0.0------------
1994-07-27 23.4 32.0 11.6--- 0.0 0.0---- 0.0------------
1994-07-26 23.1 29.9 12.1--- 0.3 0.0---- 0.0------------
1994-07-25 21.5 29.4 10.2--- 2.0 0.7---- 0.0------------
1994-07-24 21.3 28.6 9.3--- 0.3 0.3---- 0.0------------
1994-07-23 20.0 27.5 10.4--- 0.7 0.3---- 0.0------------
1994-07-22 18.5 26.0 10.2--- 1.7 0.7---- 0.0------------
1994-07-21 18.8 25.9 9.1--- 0.7 3.0---- 0.0------------
1994-07-20 16.7 23.5 7.2--- 3.0 0.7---- 0.0------------
1994-07-19 16.1 21.1 9.5--- 2.0 2.7---- 0.0------------
1994-07-18 17.5 22.5 11.5--- 2.7 2.0---- 0.0------------
1994-07-17 19.7 23.6 15.8--- 3.7 2.0---- 0.0------------
1994-07-16 23.4 31.5 13.1--- 3.3 2.0---- 0.0------------
1994-07-15 25.2 30.8 15.1--- 0.0 0.3---- 0.0------------
1994-07-14 24.9 30.9 16.3--- 1.0 0.0---- 0.0------------
1994-07-13 24.2 29.5 13.5--- 2.0 1.0---- 0.0------------
1994-07-12 23.0 29.5 12.4--- 2.0 0.7---- 0.0------------
1994-07-11 21.5 28.5 11.5--- 0.7 0.3---- 0.0------------
1994-07-10 19.7 27.4 10.5--- 1.0 1.3---- 0.0------------
1994-07-09 17.2 21.5 12.2--- 5.7 1.3---- 0.0------------
1994-07-08 16.8 25.5 8.3--- 4.7 0.3---- 14.4------------
1994-07-07 17.2 23.5 5.8--- 1.0 0.0---- 0.0------------
1994-07-06 17.3 22.1 7.3--- 2.3 1.0---- 0.0------------
1994-07-05 16.4 22.7 6.8--- 1.7 0.7---- 0.0------------
1994-07-04 17.2 24.9 9.9--- 3.3 1.0---- 0.0------------
1994-07-03 15.5 22.2 6.3--- 1.7 1.7---- 0.0------------
1994-07-02 15.9 21.1 7.8--- 0.3 3.0---- 0.0------------
1994-07-01 14.7 19.4 10.0--- 4.7 3.0---- 0.0------------
1994-06-30 17.6 23.5 14.1--- 5.3 2.0---- 9.7------------
1994-06-29 20.0 26.5 10.1--- 0.7 0.0---- 0.0------------
1994-06-28 18.3 24.5 10.1--- 0.3 1.7---- 0.0------------
1994-06-27 18.6 24.2 13.6--- 4.7 2.3---- 0.0------------
1994-06-26 20.4 27.1 9.9--- 0.3 2.0---- 0.0------------
1994-06-25 15.0 20.6 6.6--- 0.3 1.7---- 0.0------------
1994-06-24 11.1 14.7 9.5--- 6.7 6.3---- 0.0------------
1994-06-23 11.9 16.2 8.2--- 8.0 8.7---- 1.0------------
1994-06-22 16.3 20.6 8.5--- 8.0 4.0---- 2.2------------
1994-06-21 14.4 20.1 6.9--- 2.7 0.3---- 0.0------------
1994-06-20 12.5 14.4 10.1--- 5.7 3.7---- 0.0------------
1994-06-19 11.5 13.6 10.0--- 8.0 2.7---- 3.2------------
1994-06-18 11.0 16.0 4.2--- 6.3 2.3---- 2.6------------
1994-06-17 9.4 13.1 4.9--- 4.0 3.3---- 0.0------------
1994-06-16 9.4 12.7 6.9--- 6.0 3.7---- 4.8------------
215.0 ms

 

Źródłem pochodzenia danych jest Instytut Meteorologii i Gospodarki Wodnej – Państwowy Instytut Badawczy. Dane Instytutu Meteorologii i Gospodarki Wodnej – Państwowego Instytutu Badawczego zostały przetworzone.

Dane źródłowe można odnaleźć na stronie https://dane.imgw.pl